sensor_id;sensor_type;location;lat;lon;timestamp;pressure;altitude;pressure_sealevel;temperature;humidity
39593;BME280;25286;48.870;9.084;2022-09-30T00:01:20;97092.63;;;7.76;nan
39593;BME280;25286;48.870;9.084;2022-09-30T00:03:46;97093.63;;;7.86;nan
39593;BME280;25286;48.870;9.084;2022-09-30T00:06:14;97095.44;;;7.98;nan
39593;BME280;25286;48.870;9.084;2022-09-30T00:08:40;97094.91;;;8.01;nan
39593;BME280;25286;48.870;9.084;2022-09-30T00:11:11;97096.94;;;7.88;nan
39593;BME280;25286;48.870;9.084;2022-09-30T00:13:47;97101.81;;;7.86;nan
39593;BME280;25286;48.870;9.084;2022-09-30T00:16:15;97106.69;;;7.84;nan
39593;BME280;25286;48.870;9.084;2022-09-30T00:18:42;97107.94;;;7.94;nan
39593;BME280;25286;48.870;9.084;2022-09-30T00:21:08;97104.38;;;7.93;nan
39593;BME280;25286;48.870;9.084;2022-09-30T00:23:35;97111.34;;;7.84;nan
39593;BME280;25286;48.870;9.084;2022-09-30T00:26:05;97101.88;;;7.92;nan
39593;BME280;25286;48.870;9.084;2022-09-30T00:28:31;97108.34;;;8.02;nan
39593;BME280;25286;48.870;9.084;2022-09-30T00:30:58;97110.50;;;7.83;nan
39593;BME280;25286;48.870;9.084;2022-09-30T00:33:24;97111.66;;;7.54;nan
39593;BME280;25286;48.870;9.084;2022-09-30T00:35:50;97115.47;;;7.53;nan
39593;BME280;25286;48.870;9.084;2022-09-30T00:38:16;97108.84;;;7.49;nan
39593;BME280;25286;48.870;9.084;2022-09-30T00:40:42;97112.97;;;7.34;nan
39593;BME280;25286;48.870;9.084;2022-09-30T00:43:16;97113.47;;;7.48;nan
39593;BME280;25286;48.870;9.084;2022-09-30T00:45:53;97104.44;;;7.64;nan
39593;BME280;25286;48.870;9.084;2022-09-30T00:48:31;97113.06;;;7.73;nan
39593;BME280;25286;48.870;9.084;2022-09-30T00:50:58;97114.63;;;7.69;nan
39593;BME280;25286;48.870;9.084;2022-09-30T00:56:04;97113.06;;;7.73;nan
39593;BME280;25286;48.870;9.084;2022-09-30T00:58:46;97119.13;;;7.75;nan
39593;BME280;25286;48.870;9.084;2022-09-30T01:01:15;97117.03;;;7.82;nan
39593;BME280;25286;48.870;9.084;2022-09-30T01:03:52;97123.91;;;7.85;nan
39593;BME280;25286;48.870;9.084;2022-09-30T01:06:21;97119.09;;;7.92;nan
39593;BME280;25286;48.870;9.084;2022-09-30T01:08:47;97117.28;;;7.98;nan
39593;BME280;25286;48.870;9.084;2022-09-30T01:11:13;97125.06;;;7.89;nan
39593;BME280;25286;48.870;9.084;2022-09-30T01:13:39;97116.53;;;7.85;nan
39593;BME280;25286;48.870;9.084;2022-09-30T01:27:14;97126.66;;;8.02;nan
39593;BME280;25286;48.870;9.084;2022-09-30T01:32:43;97127.78;;;8.06;nan
39593;BME280;25286;48.870;9.084;2022-09-30T01:42:41;97122.41;;;8.11;nan
39593;BME280;25286;48.870;9.084;2022-09-30T01:45:33;97128.63;;;8.06;nan
39593;BME280;25286;48.870;9.084;2022-09-30T01:48:07;97127.22;;;8.04;nan
39593;BME280;25286;48.870;9.084;2022-09-30T01:50:48;97126.72;;;7.90;nan
39593;BME280;25286;48.870;9.084;2022-09-30T01:58:40;97131.34;;;7.73;nan
39593;BME280;25286;48.870;9.084;2022-09-30T02:01:12;97135.72;;;7.74;nan
39593;BME280;25286;48.870;9.084;2022-09-30T02:03:46;97145.34;;;7.76;nan
39593;BME280;25286;48.870;9.084;2022-09-30T02:06:23;97134.84;;;7.85;nan
39593;BME280;25286;48.870;9.084;2022-09-30T02:08:56;97137.16;;;7.93;nan
39593;BME280;25286;48.870;9.084;2022-09-30T02:11:27;97142.63;;;7.93;nan
39593;BME280;25286;48.870;9.084;2022-09-30T02:14:09;97152.22;;;7.96;nan
39593;BME280;25286;48.870;9.084;2022-09-30T02:16:38;97161.50;;;7.95;nan
39593;BME280;25286;48.870;9.084;2022-09-30T02:19:10;97161.81;;;7.81;nan
39593;BME280;25286;48.870;9.084;2022-09-30T02:21:39;97162.22;;;7.73;nan
39593;BME280;25286;48.870;9.084;2022-09-30T02:24:08;97165.13;;;7.83;nan
39593;BME280;25286;48.870;9.084;2022-09-30T02:26:40;97171.41;;;8.01;nan
39593;BME280;25286;48.870;9.084;2022-09-30T02:29:14;97174.75;;;8.03;nan
39593;BME280;25286;48.870;9.084;2022-09-30T02:31:41;97170.75;;;7.94;nan
39593;BME280;25286;48.870;9.084;2022-09-30T02:34:23;97175.72;;;7.97;nan
39593;BME280;25286;48.870;9.084;2022-09-30T02:36:59;97177.06;;;7.94;nan
39593;BME280;25286;48.870;9.084;2022-09-30T02:39:33;97180.38;;;7.79;nan
39593;BME280;25286;48.870;9.084;2022-09-30T02:42:11;97183.06;;;7.62;nan
39593;BME280;25286;48.870;9.084;2022-09-30T02:44:38;97175.34;;;7.59;nan
39593;BME280;25286;48.870;9.084;2022-09-30T02:50:08;97183.63;;;7.48;nan
39593;BME280;25286;48.870;9.084;2022-09-30T02:52:50;97187.81;;;7.38;nan
39593;BME280;25286;48.870;9.084;2022-09-30T02:55:29;97185.22;;;7.32;nan
39593;BME280;25286;48.870;9.084;2022-09-30T03:00:29;97186.56;;;7.29;nan
39593;BME280;25286;48.870;9.084;2022-09-30T03:03:02;97185.81;;;7.34;nan
39593;BME280;25286;48.870;9.084;2022-09-30T03:05:30;97199.94;;;7.31;nan
39593;BME280;25286;48.870;9.084;2022-09-30T03:07:55;97197.13;;;7.26;nan
39593;BME280;25286;48.870;9.084;2022-09-30T03:10:22;97203.50;;;7.31;nan
39593;BME280;25286;48.870;9.084;2022-09-30T03:18:15;97208.28;;;7.53;nan
39593;BME280;25286;48.870;9.084;2022-09-30T03:21:11;97209.00;;;7.48;nan
39593;BME280;25286;48.870;9.084;2022-09-30T03:23:49;97211.56;;;7.55;nan
39593;BME280;25286;48.870;9.084;2022-09-30T03:37:25;97221.03;;;7.64;nan
39593;BME280;25286;48.870;9.084;2022-09-30T03:39:58;97219.84;;;7.60;nan
39593;BME280;25286;48.870;9.084;2022-09-30T03:42:29;97218.56;;;7.62;nan
39593;BME280;25286;48.870;9.084;2022-09-30T03:45:06;97218.38;;;7.52;nan
39593;BME280;25286;48.870;9.084;2022-09-30T03:47:37;97214.56;;;7.53;nan
39593;BME280;25286;48.870;9.084;2022-09-30T03:50:07;97194.84;;;7.51;nan
39593;BME280;25286;48.870;9.084;2022-09-30T03:52:34;97202.31;;;7.56;nan
39593;BME280;25286;48.870;9.084;2022-09-30T03:55:03;97207.28;;;7.59;nan
39593;BME280;25286;48.870;9.084;2022-09-30T03:57:29;97226.78;;;7.51;nan
39593;BME280;25286;48.870;9.084;2022-09-30T03:59:58;97223.53;;;7.37;nan
39593;BME280;25286;48.870;9.084;2022-09-30T04:02:25;97225.06;;;7.33;nan
39593;BME280;25286;48.870;9.084;2022-09-30T04:04:51;97230.50;;;7.16;nan
39593;BME280;25286;48.870;9.084;2022-09-30T04:07:16;97237.63;;;7.05;nan
39593;BME280;25286;48.870;9.084;2022-09-30T04:09:42;97240.34;;;7.05;nan
39593;BME280;25286;48.870;9.084;2022-09-30T04:12:08;97235.28;;;6.97;nan
39593;BME280;25286;48.870;9.084;2022-09-30T04:14:34;97240.75;;;6.97;nan
39593;BME280;25286;48.870;9.084;2022-09-30T04:17:01;97246.75;;;7.11;nan
39593;BME280;25286;48.870;9.084;2022-09-30T04:19:26;97252.03;;;7.29;nan
39593;BME280;25286;48.870;9.084;2022-09-30T04:21:53;97248.09;;;7.37;nan
39593;BME280;25286;48.870;9.084;2022-09-30T04:24:20;97252.97;;;7.35;nan
39593;BME280;25286;48.870;9.084;2022-09-30T04:26:46;97250.91;;;7.42;nan
39593;BME280;25286;48.870;9.084;2022-09-30T04:29:11;97249.69;;;7.50;nan
39593;BME280;25286;48.870;9.084;2022-09-30T04:31:37;97253.31;;;7.38;nan
39593;BME280;25286;48.870;9.084;2022-09-30T04:34:03;97257.81;;;7.33;nan
39593;BME280;25286;48.870;9.084;2022-09-30T04:36:28;97256.28;;;7.37;nan
39593;BME280;25286;48.870;9.084;2022-09-30T04:38:54;97246.53;;;7.41;nan
39593;BME280;25286;48.870;9.084;2022-09-30T04:41:20;97252.25;;;7.39;nan
39593;BME280;25286;48.870;9.084;2022-09-30T04:43:47;97249.13;;;7.48;nan
39593;BME280;25286;48.870;9.084;2022-09-30T04:46:16;97256.16;;;7.44;nan
39593;BME280;25286;48.870;9.084;2022-09-30T04:48:45;97261.00;;;7.42;nan
39593;BME280;25286;48.870;9.084;2022-09-30T04:51:16;97263.72;;;7.42;nan
39593;BME280;25286;48.870;9.084;2022-09-30T04:53:42;97267.09;;;7.32;nan
39593;BME280;25286;48.870;9.084;2022-09-30T04:56:09;97275.53;;;7.30;nan
39593;BME280;25286;48.870;9.084;2022-09-30T04:58:35;97278.56;;;7.46;nan
39593;BME280;25286;48.870;9.084;2022-09-30T05:01:11;97275.38;;;7.37;nan
39593;BME280;25286;48.870;9.084;2022-09-30T05:03:38;97280.06;;;7.25;nan
39593;BME280;25286;48.870;9.084;2022-09-30T05:06:05;97277.66;;;7.28;nan
39593;BME280;25286;48.870;9.084;2022-09-30T05:08:31;97286.06;;;7.38;nan
39593;BME280;25286;48.870;9.084;2022-09-30T05:11:07;97291.91;;;7.30;nan
39593;BME280;25286;48.870;9.084;2022-09-30T05:13:36;97290.81;;;7.43;nan
39593;BME280;25286;48.870;9.084;2022-09-30T05:16:03;97290.69;;;7.38;nan
39593;BME280;25286;48.870;9.084;2022-09-30T05:18:29;97296.38;;;7.36;nan
39593;BME280;25286;48.870;9.084;2022-09-30T05:20:56;97295.31;;;7.37;nan
39593;BME280;25286;48.870;9.084;2022-09-30T05:23:23;97305.03;;;7.45;nan
39593;BME280;25286;48.870;9.084;2022-09-30T05:25:49;97300.91;;;7.43;nan
39593;BME280;25286;48.870;9.084;2022-09-30T05:28:15;97296.09;;;7.50;nan
39593;BME280;25286;48.870;9.084;2022-09-30T05:30:41;97312.69;;;7.60;nan
39593;BME280;25286;48.870;9.084;2022-09-30T05:33:09;97315.41;;;7.60;nan
39593;BME280;25286;48.870;9.084;2022-09-30T05:35:34;97311.19;;;7.52;nan
39593;BME280;25286;48.870;9.084;2022-09-30T05:38:01;97316.09;;;7.38;nan
39593;BME280;25286;48.870;9.084;2022-09-30T05:40:29;97314.75;;;7.41;nan
39593;BME280;25286;48.870;9.084;2022-09-30T05:42:56;97318.09;;;7.43;nan
39593;BME280;25286;48.870;9.084;2022-09-30T05:45:23;97318.09;;;7.43;nan
39593;BME280;25286;48.870;9.084;2022-09-30T05:47:52;97328.88;;;7.50;nan
39593;BME280;25286;48.870;9.084;2022-09-30T05:50:18;97331.69;;;7.55;nan
39593;BME280;25286;48.870;9.084;2022-09-30T05:52:45;97333.97;;;7.58;nan
39593;BME280;25286;48.870;9.084;2022-09-30T05:55:10;97335.50;;;7.54;nan
39593;BME280;25286;48.870;9.084;2022-09-30T05:57:36;97329.56;;;7.57;nan
39593;BME280;25286;48.870;9.084;2022-09-30T06:00:03;97325.88;;;7.51;nan
39593;BME280;25286;48.870;9.084;2022-09-30T06:02:29;97332.88;;;7.59;nan
39593;BME280;25286;48.870;9.084;2022-09-30T06:04:54;97332.31;;;7.57;nan
39593;BME280;25286;48.870;9.084;2022-09-30T06:07:20;97330.16;;;7.59;nan
39593;BME280;25286;48.870;9.084;2022-09-30T06:09:45;97331.44;;;7.68;nan
39593;BME280;25286;48.870;9.084;2022-09-30T06:14:42;97339.09;;;7.83;nan
39593;BME280;25286;48.870;9.084;2022-09-30T06:17:07;97344.50;;;7.95;nan
39593;BME280;25286;48.870;9.084;2022-09-30T06:19:33;97343.59;;;7.89;nan
39593;BME280;25286;48.870;9.084;2022-09-30T06:21:59;97346.91;;;7.91;nan
39593;BME280;25286;48.870;9.084;2022-09-30T06:24:25;97344.41;;;7.89;nan
39593;BME280;25286;48.870;9.084;2022-09-30T06:26:50;97356.97;;;8.02;nan
39593;BME280;25286;48.870;9.084;2022-09-30T06:29:16;97352.75;;;8.11;nan
39593;BME280;25286;48.870;9.084;2022-09-30T06:31:44;97357.72;;;8.14;nan
39593;BME280;25286;48.870;9.084;2022-09-30T06:34:09;97350.84;;;8.12;nan
39593;BME280;25286;48.870;9.084;2022-09-30T06:36:35;97363.06;;;8.21;nan
39593;BME280;25286;48.870;9.084;2022-09-30T06:39:02;97363.09;;;8.38;nan
39593;BME280;25286;48.870;9.084;2022-09-30T06:41:28;97359.06;;;8.57;nan
39593;BME280;25286;48.870;9.084;2022-09-30T06:43:55;97368.69;;;8.60;nan
39593;BME280;25286;48.870;9.084;2022-09-30T06:46:21;97377.47;;;8.62;nan
39593;BME280;25286;48.870;9.084;2022-09-30T06:48:55;97376.44;;;8.51;nan
39593;BME280;25286;48.870;9.084;2022-09-30T06:51:22;97382.88;;;8.57;nan
39593;BME280;25286;48.870;9.084;2022-09-30T06:53:53;97375.97;;;8.54;nan
39593;BME280;25286;48.870;9.084;2022-09-30T06:56:21;97383.81;;;8.51;nan
39593;BME280;25286;48.870;9.084;2022-09-30T06:58:47;97389.38;;;8.56;nan
39593;BME280;25286;48.870;9.084;2022-09-30T07:01:13;97387.47;;;8.56;nan
39593;BME280;25286;48.870;9.084;2022-09-30T07:03:41;97394.44;;;8.64;nan
39593;BME280;25286;48.870;9.084;2022-09-30T07:06:07;97391.97;;;8.62;nan
39593;BME280;25286;48.870;9.084;2022-09-30T07:08:34;97392.41;;;8.71;nan
39593;BME280;25286;48.870;9.084;2022-09-30T07:11:05;97397.28;;;8.69;nan
39593;BME280;25286;48.870;9.084;2022-09-30T07:13:36;97402.19;;;8.67;nan
39593;BME280;25286;48.870;9.084;2022-09-30T07:16:02;97404.34;;;8.82;nan
39593;BME280;25286;48.870;9.084;2022-09-30T07:18:27;97416.19;;;8.87;nan
39593;BME280;25286;48.870;9.084;2022-09-30T07:20:54;97421.00;;;8.97;nan
39593;BME280;25286;48.870;9.084;2022-09-30T07:23:21;97413.53;;;8.93;nan
39593;BME280;25286;48.870;9.084;2022-09-30T07:25:55;97411.88;;;8.91;nan
39593;BME280;25286;48.870;9.084;2022-09-30T07:28:26;97416.88;;;8.95;nan
39593;BME280;25286;48.870;9.084;2022-09-30T07:30:56;97416.53;;;8.91;nan
39593;BME280;25286;48.870;9.084;2022-09-30T07:33:24;97419.75;;;9.05;nan
39593;BME280;25286;48.870;9.084;2022-09-30T07:35:55;97412.13;;;9.07;nan
39593;BME280;25286;48.870;9.084;2022-09-30T07:38:22;97416.84;;;9.11;nan
39593;BME280;25286;48.870;9.084;2022-09-30T07:43:27;97419.75;;;9.22;nan
39593;BME280;25286;48.870;9.084;2022-09-30T07:46:06;97418.41;;;9.24;nan
39593;BME280;25286;48.870;9.084;2022-09-30T07:48:33;97435.34;;;9.21;nan
39593;BME280;25286;48.870;9.084;2022-09-30T07:51:26;97437.25;;;9.21;nan
39593;BME280;25286;48.870;9.084;2022-09-30T07:53:56;97432.78;;;9.14;nan
39593;BME280;25286;48.870;9.084;2022-09-30T07:56:24;97441.41;;;9.23;nan
39593;BME280;25286;48.870;9.084;2022-09-30T07:58:54;97446.53;;;9.36;nan
39593;BME280;25286;48.870;9.084;2022-09-30T08:01:20;97447.09;;;9.38;nan
39593;BME280;25286;48.870;9.084;2022-09-30T08:03:46;97453.09;;;9.35;nan
39593;BME280;25286;48.870;9.084;2022-09-30T08:06:16;97459.63;;;9.34;nan
39593;BME280;25286;48.870;9.084;2022-09-30T08:08:44;97464.47;;;9.44;nan
39593;BME280;25286;48.870;9.084;2022-09-30T08:11:11;97472.56;;;9.39;nan
39593;BME280;25286;48.870;9.084;2022-09-30T08:13:37;97464.34;;;9.39;nan
39593;BME280;25286;48.870;9.084;2022-09-30T08:16:03;97466.13;;;9.45;nan
39593;BME280;25286;48.870;9.084;2022-09-30T08:18:29;97474.56;;;9.43;nan
39593;BME280;25286;48.870;9.084;2022-09-30T08:20:55;97478.03;;;9.56;nan
39593;BME280;25286;48.870;9.084;2022-09-30T08:23:21;97476.88;;;9.52;nan
39593;BME280;25286;48.870;9.084;2022-09-30T08:25:47;97479.94;;;9.72;nan
39593;BME280;25286;48.870;9.084;2022-09-30T08:28:13;97487.69;;;9.80;nan
39593;BME280;25286;48.870;9.084;2022-09-30T08:30:39;97489.44;;;9.86;nan
39593;BME280;25286;48.870;9.084;2022-09-30T08:33:04;97488.56;;;10.03;nan
39593;BME280;25286;48.870;9.084;2022-09-30T08:35:31;97485.06;;;10.07;nan
39593;BME280;25286;48.870;9.084;2022-09-30T08:37:58;97491.91;;;10.05;nan
39593;BME280;25286;48.870;9.084;2022-09-30T08:40:29;97485.63;;;9.87;nan
39593;BME280;25286;48.870;9.084;2022-09-30T08:43:18;97485.38;;;10.11;nan
39593;BME280;25286;48.870;9.084;2022-09-30T08:46:14;97488.47;;;10.14;nan
39593;BME280;25286;48.870;9.084;2022-09-30T08:51:35;97492.41;;;10.24;nan
39593;BME280;25286;48.870;9.084;2022-09-30T08:54:04;97494.41;;;10.28;nan
39593;BME280;25286;48.870;9.084;2022-09-30T08:56:31;97501.22;;;10.26;nan
39593;BME280;25286;48.870;9.084;2022-09-30T08:59:23;97490.84;;;10.28;nan
39593;BME280;25286;48.870;9.084;2022-09-30T09:01:54;97499.31;;;10.26;nan
39593;BME280;25286;48.870;9.084;2022-09-30T09:04:23;97498.09;;;10.39;nan
39593;BME280;25286;48.870;9.084;2022-09-30T09:07:01;97497.16;;;10.50;nan
39593;BME280;25286;48.870;9.084;2022-09-30T09:09:38;97494.19;;;10.57;nan
39593;BME280;25286;48.870;9.084;2022-09-30T09:12:18;97503.97;;;10.48;nan
39593;BME280;25286;48.870;9.084;2022-09-30T09:20:19;97495.34;;;10.61;nan
39593;BME280;25286;48.870;9.084;2022-09-30T09:22:46;97491.63;;;10.45;nan
39593;BME280;25286;48.870;9.084;2022-09-30T09:25:24;97499.06;;;10.50;nan
39593;BME280;25286;48.870;9.084;2022-09-30T09:28:02;97493.19;;;10.63;nan
39593;BME280;25286;48.870;9.084;2022-09-30T09:30:42;97499.41;;;10.80;nan
39593;BME280;25286;48.870;9.084;2022-09-30T09:33:20;97502.13;;;10.80;nan
39593;BME280;25286;48.870;9.084;2022-09-30T09:36:00;97502.31;;;10.96;nan
39593;BME280;25286;48.870;9.084;2022-09-30T09:39:06;97500.91;;;10.93;nan
39593;BME280;25286;48.870;9.084;2022-09-30T09:41:47;97505.84;;;10.91;nan
39593;BME280;25286;48.870;9.084;2022-09-30T09:45:10;97508.16;;;11.04;nan
39593;BME280;25286;48.870;9.084;2022-09-30T09:47:18;97508.66;;;11.28;nan
39593;BME280;25286;48.870;9.084;2022-09-30T09:49:45;97507.16;;;11.15;nan
39593;BME280;25286;48.870;9.084;2022-09-30T09:52:25;97507.38;;;11.09;nan
39593;BME280;25286;48.870;9.084;2022-09-30T09:54:57;97504.16;;;11.17;nan
39593;BME280;25286;48.870;9.084;2022-09-30T09:57:27;97504.69;;;11.14;nan
39593;BME280;25286;48.870;9.084;2022-09-30T10:02:29;97508.56;;;11.18;nan
39593;BME280;25286;48.870;9.084;2022-09-30T10:04:56;97510.75;;;11.16;nan
39593;BME280;25286;48.870;9.084;2022-09-30T10:07:31;97510.75;;;11.16;nan
39593;BME280;25286;48.870;9.084;2022-09-30T10:10:23;97515.84;;;11.34;nan
39593;BME280;25286;48.870;9.084;2022-09-30T10:12:49;97519.47;;;11.40;nan
39593;BME280;25286;48.870;9.084;2022-09-30T10:15:22;97514.19;;;11.65;nan
39593;BME280;25286;48.870;9.084;2022-09-30T10:17:55;97530.31;;;11.57;nan
39593;BME280;25286;48.870;9.084;2022-09-30T10:20:31;97520.50;;;11.34;nan
39593;BME280;25286;48.870;9.084;2022-09-30T10:23:35;97523.19;;;11.56;nan
39593;BME280;25286;48.870;9.084;2022-09-30T10:26:23;97513.97;;;11.77;nan
39593;BME280;25286;48.870;9.084;2022-09-30T10:29:00;97519.47;;;12.14;nan
39593;BME280;25286;48.870;9.084;2022-09-30T10:31:34;97514.84;;;12.20;nan
39593;BME280;25286;48.870;9.084;2022-09-30T10:36:46;97516.63;;;12.46;nan
39593;BME280;25286;48.870;9.084;2022-09-30T10:42:08;97518.88;;;12.65;nan
39593;BME280;25286;48.870;9.084;2022-09-30T10:44:54;97517.59;;;12.93;nan
39593;BME280;25286;48.870;9.084;2022-09-30T10:47:22;97516.78;;;13.03;nan
39593;BME280;25286;48.870;9.084;2022-09-30T10:50:00;97518.44;;;13.04;nan
39593;BME280;25286;48.870;9.084;2022-09-30T10:52:34;97522.81;;;12.94;nan
39593;BME280;25286;48.870;9.084;2022-09-30T10:55:06;97514.56;;;13.10;nan
39593;BME280;25286;48.870;9.084;2022-09-30T10:57:36;97517.63;;;13.08;nan
39593;BME280;25286;48.870;9.084;2022-09-30T11:00:13;97514.06;;;13.23;nan
39593;BME280;25286;48.870;9.084;2022-09-30T11:05:49;97520.66;;;13.07;nan
39593;BME280;25286;48.870;9.084;2022-09-30T11:11:07;97516.78;;;12.92;nan
39593;BME280;25286;48.870;9.084;2022-09-30T11:16:25;97511.63;;;13.32;nan
39593;BME280;25286;48.870;9.084;2022-09-30T11:21:51;97514.84;;;13.08;nan
39593;BME280;25286;48.870;9.084;2022-09-30T11:24:33;97518.19;;;13.10;nan
39593;BME280;25286;48.870;9.084;2022-09-30T11:27:37;97519.25;;;13.04;nan
39593;BME280;25286;48.870;9.084;2022-09-30T11:30:15;97518.53;;;13.34;nan
39593;BME280;25286;48.870;9.084;2022-09-30T11:58:03;97530.56;;;13.18;nan
39593;BME280;25286;48.870;9.084;2022-09-30T12:00:31;97529.25;;;13.26;nan
39593;BME280;25286;48.870;9.084;2022-09-30T12:03:00;97526.78;;;13.34;nan
39593;BME280;25286;48.870;9.084;2022-09-30T12:05:40;97522.88;;;13.96;nan
39593;BME280;25286;48.870;9.084;2022-09-30T12:08:30;97516.44;;;14.42;nan
39593;BME280;25286;48.870;9.084;2022-09-30T12:11:06;97516.72;;;14.40;nan
39593;BME280;25286;48.870;9.084;2022-09-30T12:13:38;97519.72;;;14.59;nan
39593;BME280;25286;48.870;9.084;2022-09-30T12:16:12;97509.81;;;14.53;nan
39593;BME280;25286;48.870;9.084;2022-09-30T12:18:41;97513.31;;;14.69;nan
39593;BME280;25286;48.870;9.084;2022-09-30T12:21:32;97514.41;;;14.73;nan
39593;BME280;25286;48.870;9.084;2022-09-30T12:24:18;97506.16;;;14.68;nan
39593;BME280;25286;48.870;9.084;2022-09-30T12:26:45;97519.06;;;14.83;nan
39593;BME280;25286;48.870;9.084;2022-09-30T12:29:17;97517.69;;;14.80;nan
39593;BME280;25286;48.870;9.084;2022-09-30T12:41:06;97518.44;;;14.11;nan
39593;BME280;25286;48.870;9.084;2022-09-30T12:43:48;97516.28;;;13.87;nan
39593;BME280;25286;48.870;9.084;2022-09-30T12:49:06;97520.69;;;13.98;nan
39593;BME280;25286;48.870;9.084;2022-09-30T12:51:35;97518.47;;;14.01;nan
39593;BME280;25286;48.870;9.084;2022-09-30T12:54:24;97514.34;;;13.98;nan
39593;BME280;25286;48.870;9.084;2022-09-30T12:56:55;97513.53;;;13.97;nan
39593;BME280;25286;48.870;9.084;2022-09-30T12:59:53;97514.91;;;13.95;nan
39593;BME280;25286;48.870;9.084;2022-09-30T13:02:30;97521.72;;;14.23;nan
39593;BME280;25286;48.870;9.084;2022-09-30T13:20:51;97525.50;;;14.47;nan
39593;BME280;25286;48.870;9.084;2022-09-30T13:23:43;97523.03;;;14.46;nan
39593;BME280;25286;48.870;9.084;2022-09-30T13:31:29;97526.81;;;14.81;nan
39593;BME280;25286;48.870;9.084;2022-09-30T13:41:42;97531.31;;;14.56;nan
39593;BME280;25286;48.870;9.084;2022-09-30T13:47:18;97528.91;;;14.24;nan
39593;BME280;25286;48.870;9.084;2022-09-30T13:49:59;97533.84;;;14.32;nan
39593;BME280;25286;48.870;9.084;2022-09-30T13:52:30;97529.16;;;14.33;nan
39593;BME280;25286;48.870;9.084;2022-09-30T13:54:58;97533.91;;;14.17;nan
39593;BME280;25286;48.870;9.084;2022-09-30T13:57:36;97538.25;;;14.33;nan
39593;BME280;25286;48.870;9.084;2022-09-30T14:00:15;97542.97;;;14.33;nan
39593;BME280;25286;48.870;9.084;2022-09-30T14:19:29;97545.78;;;14.07;nan
39593;BME280;25286;48.870;9.084;2022-09-30T14:22:07;97547.72;;;14.07;nan
39593;BME280;25286;48.870;9.084;2022-09-30T14:24:36;97549.09;;;14.09;nan
39593;BME280;25286;48.870;9.084;2022-09-30T14:32:43;97544.09;;;14.06;nan
39593;BME280;25286;48.870;9.084;2022-09-30T14:35:33;97533.94;;;14.07;nan
39593;BME280;25286;48.870;9.084;2022-09-30T14:38:12;97550.19;;;14.03;nan
39593;BME280;25286;48.870;9.084;2022-09-30T14:40:40;97540.81;;;14.04;nan
39593;BME280;25286;48.870;9.084;2022-09-30T14:43:14;97542.22;;;14.07;nan
39593;BME280;25286;48.870;9.084;2022-09-30T14:45:44;97549.63;;;14.06;nan
39593;BME280;25286;48.870;9.084;2022-09-30T14:48:19;97550.19;;;14.08;nan
39593;BME280;25286;48.870;9.084;2022-09-30T14:50:51;97541.91;;;14.08;nan
39593;BME280;25286;48.870;9.084;2022-09-30T14:53:51;97541.63;;;14.10;nan
39593;BME280;25286;48.870;9.084;2022-09-30T14:56:32;97548.25;;;14.09;nan
39593;BME280;25286;48.870;9.084;2022-09-30T14:59:09;97543.53;;;14.19;nan
39593;BME280;25286;48.870;9.084;2022-09-30T15:01:36;97541.59;;;14.20;nan
39593;BME280;25286;48.870;9.084;2022-09-30T15:04:06;97533.88;;;14.27;nan
39593;BME280;25286;48.870;9.084;2022-09-30T15:06:36;97537.22;;;14.09;nan
39593;BME280;25286;48.870;9.084;2022-09-30T15:11:29;97531.94;;;14.28;nan
39593;BME280;25286;48.870;9.084;2022-09-30T15:14:05;97536.34;;;14.29;nan
39593;BME280;25286;48.870;9.084;2022-09-30T15:16:32;97534.41;;;14.24;nan
39593;BME280;25286;48.870;9.084;2022-09-30T15:18:58;97534.41;;;14.24;nan
39593;BME280;25286;48.870;9.084;2022-09-30T15:21:25;97537.19;;;14.24;nan
39593;BME280;25286;48.870;9.084;2022-09-30T15:23:56;97532.25;;;14.16;nan
39593;BME280;25286;48.870;9.084;2022-09-30T15:26:25;97537.78;;;14.16;nan
39593;BME280;25286;48.870;9.084;2022-09-30T15:28:52;97533.63;;;14.13;nan
39593;BME280;25286;48.870;9.084;2022-09-30T15:31:25;97526.19;;;14.14;nan
39593;BME280;25286;48.870;9.084;2022-09-30T15:36:42;97544.34;;;14.20;nan
39593;BME280;25286;48.870;9.084;2022-09-30T15:39:35;97543.81;;;14.18;nan
39593;BME280;25286;48.870;9.084;2022-09-30T15:42:44;97536.94;;;14.05;nan
39593;BME280;25286;48.870;9.084;2022-09-30T15:45:50;97540.28;;;14.07;nan
39593;BME280;25286;48.870;9.084;2022-09-30T15:50:48;97538.34;;;14.03;nan
39593;BME280;25286;48.870;9.084;2022-09-30T15:53:17;97545.53;;;13.88;nan
39593;BME280;25286;48.870;9.084;2022-09-30T15:55:46;97549.94;;;13.89;nan
39593;BME280;25286;48.870;9.084;2022-09-30T15:58:37;97553.78;;;13.83;nan
39593;BME280;25286;48.870;9.084;2022-09-30T16:01:20;97549.38;;;13.82;nan
39593;BME280;25286;48.870;9.084;2022-09-30T16:07:21;97550.50;;;13.71;nan
39593;BME280;25286;48.870;9.084;2022-09-30T16:09:50;97557.66;;;13.67;nan
39593;BME280;25286;48.870;9.084;2022-09-30T16:12:18;97552.69;;;13.59;nan
39593;BME280;25286;48.870;9.084;2022-09-30T16:15:07;97556.28;;;13.54;nan
39593;BME280;25286;48.870;9.084;2022-09-30T16:17:38;97559.84;;;13.50;nan
39593;BME280;25286;48.870;9.084;2022-09-30T16:25:20;97562.31;;;13.36;nan
39593;BME280;25286;48.870;9.084;2022-09-30T16:27:46;97567.28;;;13.34;nan
39593;BME280;25286;48.870;9.084;2022-09-30T16:30:14;97568.66;;;13.31;nan
39593;BME280;25286;48.870;9.084;2022-09-30T16:32:42;97558.16;;;13.28;nan
39593;BME280;25286;48.870;9.084;2022-09-30T16:35:18;97553.22;;;13.25;nan
39593;BME280;25286;48.870;9.084;2022-09-30T16:37:44;97564.78;;;13.22;nan
39593;BME280;25286;48.870;9.084;2022-09-30T16:40:20;97565.28;;;13.19;nan
39593;BME280;25286;48.870;9.084;2022-09-30T16:42:47;97555.38;;;13.18;nan
39593;BME280;25286;48.870;9.084;2022-09-30T16:45:14;97545.75;;;13.15;nan
39593;BME280;25286;48.870;9.084;2022-09-30T16:47:40;97556.47;;;13.12;nan
39593;BME280;25286;48.870;9.084;2022-09-30T16:50:35;97552.88;;;13.06;nan
39593;BME280;25286;48.870;9.084;2022-09-30T16:53:02;97556.72;;;13.05;nan
39593;BME280;25286;48.870;9.084;2022-09-30T16:55:28;97561.69;;;13.08;nan
39593;BME280;25286;48.870;9.084;2022-09-30T16:57:54;97557.28;;;13.07;nan
39593;BME280;25286;48.870;9.084;2022-09-30T17:00:23;97566.66;;;13.06;nan
39593;BME280;25286;48.870;9.084;2022-09-30T17:02:49;97564.44;;;13.03;nan
39593;BME280;25286;48.870;9.084;2022-09-30T17:05:17;97568.53;;;13.01;nan